createdAt,value
2022-09-01T00:01:43.425Z,101809.19
2022-09-01T00:04:13.481Z,101804.63
2022-09-01T00:06:41.004Z,101799.28
2022-09-01T00:09:11.407Z,101795.59
2022-09-01T00:11:40.337Z,101800.06
2022-09-01T00:14:09.890Z,101802.72
2022-09-01T00:16:56.465Z,101795.19
2022-09-01T00:19:23.940Z,101803.34
2022-09-01T00:21:50.394Z,101802.13
2022-09-01T00:24:17.916Z,101796.00
2022-09-01T00:26:44.977Z,101801.69
2022-09-01T00:29:11.801Z,101795.78
2022-09-01T00:31:38.908Z,101794.38
2022-09-01T00:34:05.418Z,101795.94
2022-09-01T00:36:32.105Z,101796.00
2022-09-01T00:38:58.583Z,101792.72
2022-09-01T00:41:27.776Z,101794.94
2022-09-01T00:43:57.851Z,101795.19
2022-09-01T00:46:33.546Z,101784.41
2022-09-01T00:49:08.807Z,101789.66
2022-09-01T00:51:38.545Z,101784.59
2022-09-01T00:54:08.462Z,101785.66
2022-09-01T00:56:37.798Z,101785.97
2022-09-01T00:59:07.038Z,101783.06
2022-09-01T01:01:36.718Z,101789.19
2022-09-01T01:04:05.704Z,101785.78
2022-09-01T01:06:32.995Z,101780.69
2022-09-01T01:09:01.291Z,101778.69
2022-09-01T01:11:31.967Z,101780.59
2022-09-01T01:14:11.946Z,101777.88
2022-09-01T01:16:44.194Z,101780.38
2022-09-01T01:19:39.881Z,101779.75
2022-09-01T01:22:31.197Z,101773.44
2022-09-01T01:24:58.332Z,101780.09
2022-09-01T01:27:25.060Z,101772.34
2022-09-01T01:29:52.878Z,101770.66
2022-09-01T01:32:19.335Z,101770.94
2022-09-01T01:34:48.753Z,101774.84
2022-09-01T01:37:15.386Z,101764.50
2022-09-01T01:39:44.326Z,101762.94
2022-09-01T01:42:12.335Z,101768.25
2022-09-01T01:44:39.740Z,101773.47
2022-09-01T01:47:12.887Z,101775.69
2022-09-01T01:49:44.154Z,101772.13
2022-09-01T01:52:16.287Z,101780.81
2022-09-01T01:54:46.068Z,101775.00
2022-09-01T01:57:17.128Z,101779.25
2022-09-01T01:59:45.338Z,101786.09
2022-09-01T02:02:12.898Z,101779.63
2022-09-01T02:04:40.659Z,101778.56
2022-09-01T02:07:13.235Z,101777.72
2022-09-01T02:09:40.926Z,101780.75
2022-09-01T02:12:08.828Z,101775.19
2022-09-01T02:14:35.325Z,101776.94
2022-09-01T02:17:03.668Z,101776.41
2022-09-01T02:19:30.168Z,101779.44
2022-09-01T02:21:56.657Z,101781.16
2022-09-01T02:24:24.043Z,101785.78
2022-09-01T02:26:50.625Z,101781.69
2022-09-01T02:29:21.982Z,101777.06
2022-09-01T02:31:52.025Z,101781.97
2022-09-01T02:34:20.551Z,101775.22
2022-09-01T02:36:50.241Z,101776.38
2022-09-01T02:39:20.889Z,101769.53
2022-09-01T02:41:47.457Z,101770.47
2022-09-01T02:44:14.717Z,101769.63
2022-09-01T02:46:45.199Z,101771.31
2022-09-01T02:49:29.991Z,101777.69
2022-09-01T02:51:59.491Z,101772.03
2022-09-01T02:54:27.817Z,101765.75
2022-09-01T02:56:54.719Z,101769.44
2022-09-01T02:59:23.248Z,101772.22
2022-09-01T03:01:51.714Z,101774.59
2022-09-01T03:04:19.897Z,101764.72
2022-09-01T03:06:47.349Z,101761.84
2022-09-01T03:09:16.993Z,101766.63
2022-09-01T03:11:48.102Z,101761.66
2022-09-01T03:14:14.976Z,101758.63
2022-09-01T03:16:41.674Z,101758.91
2022-09-01T03:19:09.694Z,101762.72
2022-09-01T03:21:40.895Z,101761.34
2022-09-01T03:24:10.136Z,101768.34
2022-09-01T03:26:36.610Z,101757.97
2022-09-01T03:29:04.248Z,101764.06
2022-09-01T03:31:31.886Z,101772.47
2022-09-01T03:33:59.016Z,101762.75
2022-09-01T03:36:27.700Z,101769.41
2022-09-01T03:38:55.185Z,101766.66
2022-09-01T03:41:25.220Z,101768.88
2022-09-01T03:43:55.027Z,101763.97
2022-09-01T03:46:22.340Z,101759.38
2022-09-01T03:48:58.473Z,101767.53
2022-09-01T03:51:27.092Z,101763.78
2022-09-01T03:53:55.038Z,101762.44
2022-09-01T03:56:26.087Z,101763.78
2022-09-01T03:58:53.379Z,101761.75
2022-09-01T04:01:20.097Z,101759.84
2022-09-01T04:03:51.230Z,101759.53
2022-09-01T04:06:23.894Z,101752.41
2022-09-01T04:08:53.876Z,101755.78
2022-09-01T04:11:24.131Z,101758.53
2022-09-01T04:13:52.279Z,101752.56
2022-09-01T04:16:49.330Z,101746.44
2022-09-01T04:19:25.739Z,101753.06
2022-09-01T04:21:57.635Z,101750.34
2022-09-01T04:24:27.963Z,101743.38
2022-09-01T04:26:58.611Z,101752.41
2022-09-01T04:29:29.020Z,101757.34
2022-09-01T04:32:02.554Z,101757.38
2022-09-01T04:34:37.086Z,101750.22
2022-09-01T04:37:18.676Z,101748.34
2022-09-01T04:39:56.192Z,101745.78
2022-09-01T04:42:29.003Z,101747.31
2022-09-01T04:44:57.434Z,101754.66
2022-09-01T04:47:35.366Z,101751.75
2022-09-01T04:50:12.862Z,101755.84
2022-09-01T04:52:40.328Z,101754.47
2022-09-01T04:55:08.785Z,101751.94
2022-09-01T04:57:36.436Z,101757.03
2022-09-01T05:00:03.891Z,101747.84
2022-09-01T05:02:30.746Z,101762.81
2022-09-01T05:04:58.641Z,101758.56
2022-09-01T05:07:25.062Z,101762.81
2022-09-01T05:09:58.059Z,101759.25
2022-09-01T05:12:27.801Z,101762.13
2022-09-01T05:14:55.968Z,101759.41
2022-09-01T05:17:22.359Z,101769.13
2022-09-01T05:19:50.579Z,101767.91
2022-09-01T05:22:22.040Z,101762.63
2022-09-01T05:24:51.415Z,101762.13
2022-09-01T05:27:22.825Z,101771.13
2022-09-01T05:29:50.498Z,101775.91
2022-09-01T05:32:16.980Z,101780.31
2022-09-01T05:34:45.120Z,101773.38
2022-09-01T05:37:14.512Z,101767.75
2022-09-01T05:39:40.941Z,101771.47
2022-09-01T05:42:10.322Z,101772.84
2022-09-01T05:44:44.034Z,101773.69
2022-09-01T05:47:14.797Z,101781.16
2022-09-01T05:49:47.376Z,101784.41
2022-09-01T05:52:13.771Z,101778.78
2022-09-01T05:54:41.385Z,101782.53
2022-09-01T05:57:30.427Z,101785.25
2022-09-01T05:59:54.549Z,101779.44
2022-09-01T06:02:22.885Z,101773.84
2022-09-01T06:04:49.558Z,101786.78
2022-09-01T06:07:17.549Z,101778.47
2022-09-01T06:09:46.962Z,101777.94
2022-09-01T06:12:18.970Z,101783.88
2022-09-01T06:14:47.333Z,101783.22
2022-09-01T06:17:16.359Z,101785.25
2022-09-01T06:19:43.729Z,101784.22
2022-09-01T06:22:10.963Z,101784.88
2022-09-01T06:24:39.843Z,101787.06
2022-09-01T06:27:10.024Z,101787.56
2022-09-01T06:29:41.652Z,101780.84
2022-09-01T06:32:10.368Z,101780.25
2022-09-01T06:34:42.433Z,101779.31
2022-09-01T06:37:10.889Z,101782.66
2022-09-01T06:39:37.713Z,101789.00
2022-09-01T06:42:06.247Z,101792.16
2022-09-01T06:44:32.929Z,101793.78
2022-09-01T06:47:02.392Z,101798.72
2022-09-01T06:49:34.843Z,101794.25
2022-09-01T06:52:02.975Z,101799.75
2022-09-01T06:54:34.218Z,101796.75
2022-09-01T06:58:03.510Z,101796.59
2022-09-01T06:59:52.545Z,101798.47
2022-09-01T07:02:22.258Z,101798.97
2022-09-01T07:04:53.462Z,101807.03
2022-09-01T07:10:18.572Z,101804.50
2022-09-01T07:13:07.065Z,101803.66
2022-09-01T07:18:26.924Z,101798.19
2022-09-01T07:21:38.855Z,101803.75
2022-09-01T07:24:08.529Z,101805.25
2022-09-01T07:26:31.083Z,101805.00
2022-09-01T07:29:01.477Z,101810.34
2022-09-01T07:34:41.502Z,101809.31
2022-09-01T07:37:17.315Z,101811.06
2022-09-01T07:39:56.179Z,101805.41
2022-09-01T07:45:28.486Z,101806.13
2022-09-01T07:47:57.006Z,101799.09
2022-09-01T07:51:34.343Z,101792.63
2022-09-01T07:53:12.552Z,101800.25
2022-09-01T07:55:43.823Z,101792.19
2022-09-01T07:58:11.818Z,101795.53
2022-09-01T08:00:39.970Z,101796.66
2022-09-01T08:03:06.638Z,101788.03
2022-09-01T08:05:33.274Z,101788.13
2022-09-01T08:08:01.147Z,101781.88
2022-09-01T08:10:28.345Z,101790.69
2022-09-01T08:12:57.899Z,101789.19
2022-09-01T08:16:06.518Z,101788.03
2022-09-01T08:18:15.866Z,101788.63
2022-09-01T08:20:47.680Z,101783.00
2022-09-01T08:23:18.416Z,101789.84
2022-09-01T08:25:47.067Z,101795.31
2022-09-01T08:28:15.059Z,101803.19
2022-09-01T08:30:52.220Z,101796.13
2022-09-01T08:33:19.423Z,101789.44
2022-09-01T08:35:48.055Z,101795.56
2022-09-01T08:38:14.877Z,101790.81
2022-09-01T08:40:43.668Z,101788.91
2022-09-01T08:43:25.834Z,101792.56
2022-09-01T08:45:58.050Z,101782.34
2022-09-01T08:51:50.055Z,101786.19
2022-09-01T08:54:30.009Z,101781.13
2022-09-01T08:57:05.673Z,101786.13
2022-09-01T08:59:32.214Z,101784.16
2022-09-01T09:02:18.768Z,101783.63
2022-09-01T09:04:59.735Z,101788.28
2022-09-01T09:08:06.630Z,101790.78
2022-09-01T09:10:58.810Z,101782.59
2022-09-01T09:13:46.986Z,101784.81
2022-09-01T09:16:21.481Z,101778.69
2022-09-01T09:18:55.802Z,101783.31
2022-09-01T09:21:40.180Z,101772.41
2022-09-01T09:24:16.584Z,101766.06
2022-09-01T09:26:52.445Z,101767.97
2022-09-01T09:29:21.984Z,101775.75
2022-09-01T09:32:02.754Z,101757.81
2022-09-01T09:34:36.880Z,101768.84
2022-09-01T09:37:31.026Z,101753.84
2022-09-01T09:40:17.352Z,101753.16
2022-09-01T09:42:54.555Z,101749.47
2022-09-01T09:45:42.013Z,101750.81
2022-09-01T09:48:26.261Z,101746.84
2022-09-01T09:50:52.677Z,101740.34
2022-09-01T09:53:28.237Z,101741.34
2022-09-01T09:56:21.050Z,101741.75
2022-09-01T09:58:48.731Z,101740.03
2022-09-01T10:01:24.350Z,101742.22
2022-09-01T10:03:57.001Z,101738.16
2022-09-01T10:06:39.281Z,101731.44
2022-09-01T10:09:09.221Z,101737.38
2022-09-01T10:11:42.208Z,101727.06
2022-09-01T10:14:22.927Z,101725.34
2022-09-01T10:17:08.431Z,101729.94
2022-09-01T10:19:35.967Z,101717.41
2022-09-01T10:22:03.727Z,101724.66
2022-09-01T10:24:38.835Z,101725.50
2022-09-01T10:27:19.626Z,101714.38
2022-09-01T10:30:12.233Z,101713.75
2022-09-01T10:32:50.753Z,101717.50
2022-09-01T10:35:26.928Z,101716.84
2022-09-01T10:37:55.755Z,101711.97
2022-09-01T10:40:30.984Z,101710.34
2022-09-01T10:43:19.799Z,101708.59
2022-09-01T10:45:51.234Z,101708.81
2022-09-01T10:48:32.070Z,101707.97
2022-09-01T10:51:18.781Z,101694.22
2022-09-01T10:53:47.032Z,101693.59
2022-09-01T10:56:50.802Z,101699.91
2022-09-01T10:59:32.807Z,101699.34
2022-09-01T11:02:23.547Z,101692.66
2022-09-01T11:04:52.148Z,101695.41
2022-09-01T11:07:29.712Z,101702.34
2022-09-01T11:10:31.364Z,101688.72
2022-09-01T11:13:11.225Z,101687.38
2022-09-01T11:15:40.381Z,101700.16
2022-09-01T11:18:17.506Z,101693.47
2022-09-01T11:20:46.729Z,101690.91
2022-09-01T11:23:30.966Z,101685.69
2022-09-01T11:26:21.608Z,101688.47
2022-09-01T11:28:48.780Z,101692.34
2022-09-01T11:31:22.818Z,101689.22
2022-09-01T11:34:10.301Z,101689.88
2022-09-01T11:36:48.585Z,101676.41
2022-09-01T11:39:18.051Z,101673.09
2022-09-01T11:42:04.525Z,101668.63
2022-09-01T11:44:37.844Z,101678.66
2022-09-01T11:47:16.689Z,101672.88
2022-09-01T11:49:58.703Z,101662.34
2022-09-01T11:52:30.352Z,101661.69
2022-09-01T11:54:58.460Z,101663.88
2022-09-01T11:57:29.123Z,101658.59
2022-09-01T11:59:58.319Z,101653.06
2022-09-01T12:02:33.529Z,101654.69
2022-09-01T12:05:23.414Z,101661.63
2022-09-01T12:07:50.185Z,101651.03
2022-09-01T12:10:32.283Z,101655.16
2022-09-01T12:13:10.226Z,101643.81
2022-09-01T12:15:55.231Z,101641.16
2022-09-01T12:18:45.273Z,101645.78
2022-09-01T12:21:23.172Z,101638.81
2022-09-01T12:23:50.100Z,101645.88
2022-09-01T12:26:23.651Z,101654.41
2022-09-01T12:28:50.930Z,101646.28
2022-09-01T12:31:21.598Z,101641.34
2022-09-01T12:33:48.461Z,101663.03
2022-09-01T12:36:31.718Z,101642.28
2022-09-01T12:39:18.084Z,101640.19
2022-09-01T12:41:47.308Z,101636.56
2022-09-01T12:44:44.562Z,101632.66
2022-09-01T12:47:16.152Z,101642.13
2022-09-01T12:49:50.514Z,101639.88
2022-09-01T12:52:19.917Z,101632.25
2022-09-01T12:54:48.268Z,101627.94
2022-09-01T12:57:28.009Z,101616.16
2022-09-01T13:00:19.873Z,101620.28
2022-09-01T13:02:50.562Z,101620.84
2022-09-01T13:05:31.122Z,101625.78
2022-09-01T13:08:05.005Z,101607.13
2022-09-01T13:10:38.042Z,101617.03
2022-09-01T13:13:06.698Z,101618.97
2022-09-01T13:15:35.210Z,101611.44
2022-09-01T13:18:01.708Z,101620.81
2022-09-01T13:20:28.190Z,101613.59
2022-09-01T13:22:54.805Z,101602.34
2022-09-01T13:25:22.758Z,101599.66
2022-09-01T13:27:50.050Z,101592.50
2022-09-01T13:30:21.819Z,101592.13
2022-09-01T13:35:36.624Z,101580.66
2022-09-01T13:38:03.046Z,101575.09
2022-09-01T13:40:29.711Z,101580.69
2022-09-01T13:42:56.186Z,101578.44
2022-09-01T13:45:28.506Z,101580.56
2022-09-01T13:53:29.887Z,101575.72
2022-09-01T13:58:23.896Z,101578.78
2022-09-01T14:00:50.995Z,101574.88
2022-09-01T14:03:20.882Z,101576.47
2022-09-01T14:05:49.830Z,101569.94
2022-09-01T14:08:19.037Z,101574.91
2022-09-01T14:10:50.664Z,101562.22
2022-09-01T14:13:18.300Z,101563.78
2022-09-01T14:15:44.771Z,101557.59
2022-09-01T14:18:11.304Z,101548.91
2022-09-01T14:20:42.117Z,101558.31
2022-09-01T14:23:10.857Z,101557.47
2022-09-01T14:25:42.081Z,101556.19
2022-09-01T14:28:08.644Z,101562.63
2022-09-01T14:30:35.204Z,101556.50
2022-09-01T14:33:03.766Z,101549.25
2022-09-01T14:35:33.677Z,101549.28
2022-09-01T14:38:02.816Z,101545.34
2022-09-01T14:40:29.426Z,101543.44
2022-09-01T14:42:56.202Z,101547.22
2022-09-01T14:45:25.945Z,101540.41
2022-09-01T14:47:55.184Z,101535.81
2022-09-01T14:50:23.380Z,101537.38
2022-09-01T14:52:53.073Z,101528.88
2022-09-01T14:55:21.131Z,101526.50
2022-09-01T14:57:47.547Z,101527.69
2022-09-01T15:00:14.239Z,101526.34
2022-09-01T15:02:42.454Z,101519.31
2022-09-01T15:05:09.993Z,101521.56
2022-09-01T15:07:36.777Z,101514.28
2022-09-01T15:10:06.408Z,101509.03
2022-09-01T15:12:32.928Z,101507.97
2022-09-01T15:15:00.424Z,101514.59
2022-09-01T15:17:28.640Z,101514.94
2022-09-01T15:19:55.127Z,101495.47
2022-09-01T15:22:21.947Z,101501.00
2022-09-01T15:24:48.527Z,101501.84
2022-09-01T15:27:15.060Z,101506.53
2022-09-01T15:29:46.222Z,101504.97
2022-09-01T15:32:20.617Z,101506.75
2022-09-01T15:34:55.047Z,101504.31
2022-09-01T15:37:21.484Z,101504.81
2022-09-01T15:39:47.881Z,101507.53
2022-09-01T15:44:43.544Z,101501.22
2022-09-01T15:47:10.027Z,101492.59
2022-09-01T15:49:36.434Z,101499.69
2022-09-01T15:52:02.961Z,101498.84
2022-09-01T15:54:30.760Z,101494.81
2022-09-01T15:56:57.385Z,101495.59
2022-09-01T15:59:23.779Z,101493.41
2022-09-01T16:01:53.089Z,101490.38
2022-09-01T16:04:24.053Z,101491.22
2022-09-01T16:06:56.452Z,101481.34
2022-09-01T16:09:23.074Z,101485.50
2022-09-01T16:11:49.804Z,101472.63
2022-09-01T16:14:16.461Z,101484.34
2022-09-01T16:16:56.733Z,101477.38
2022-09-01T16:19:53.981Z,101474.13
2022-09-01T16:22:36.868Z,101473.84
2022-09-01T16:25:31.851Z,101465.66
2022-09-01T16:28:07.113Z,101465.88
2022-09-01T16:30:34.377Z,101466.56
2022-09-01T16:33:03.892Z,101458.19
2022-09-01T16:35:49.059Z,101458.44
2022-09-01T16:38:33.870Z,101454.00
2022-09-01T16:41:09.680Z,101445.75
2022-09-01T16:43:45.816Z,101454.84
2022-09-01T16:46:22.778Z,101454.50
2022-09-01T16:48:51.964Z,101454.63
2022-09-01T16:51:34.853Z,101451.53
2022-09-01T16:54:45.774Z,101452.59
2022-09-01T16:57:33.668Z,101444.31
2022-09-01T17:00:02.944Z,101445.38
2022-09-01T17:02:40.566Z,101454.03
2022-09-01T17:05:20.021Z,101449.09
2022-09-01T17:08:10.997Z,101450.31
2022-09-01T17:11:12.182Z,101448.38
2022-09-01T17:13:42.631Z,101451.25
2022-09-01T17:16:15.674Z,101447.03
2022-09-01T17:18:51.172Z,101450.28
2022-09-01T17:21:35.445Z,101446.09
2022-09-01T17:24:34.790Z,101448.63
2022-09-01T17:27:08.456Z,101445.06
2022-09-01T17:29:47.976Z,101450.53
2022-09-01T17:32:50.596Z,101451.31
2022-09-01T17:35:32.027Z,101446.84
2022-09-01T17:38:14.006Z,101452.19
2022-09-01T17:41:11.526Z,101440.47
2022-09-01T17:44:12.574Z,101439.25
2022-09-01T17:46:49.209Z,101444.16
2022-09-01T17:49:37.863Z,101446.56
2022-09-01T17:52:23.058Z,101444.16
2022-09-01T17:55:07.663Z,101445.41
2022-09-01T17:58:02.970Z,101450.19
2022-09-01T18:00:59.901Z,101443.91
2022-09-01T18:03:49.200Z,101449.75
2022-09-01T18:06:35.367Z,101445.75
2022-09-01T18:09:02.873Z,101445.31
2022-09-01T18:12:09.727Z,101448.06
2022-09-01T18:14:41.380Z,101450.72
2022-09-01T18:17:17.530Z,101446.59
2022-09-01T18:19:48.320Z,101443.00
2022-09-01T18:22:21.127Z,101446.66
2022-09-01T18:24:51.285Z,101447.97
2022-09-01T18:27:17.745Z,101446.16
2022-09-01T18:29:47.179Z,101446.22
2022-09-01T18:32:22.890Z,101449.72
2022-09-01T18:35:18.897Z,101455.66
2022-09-01T18:37:59.504Z,101458.69
2022-09-01T18:40:37.419Z,101458.53
2022-09-01T18:43:32.966Z,101461.44
2022-09-01T18:46:07.782Z,101463.19
2022-09-01T18:49:05.127Z,101461.44
2022-09-01T18:51:58.060Z,101472.09
2022-09-01T18:54:30.537Z,101469.56
2022-09-01T18:57:01.189Z,101481.81
2022-09-01T18:59:37.057Z,101476.75
2022-09-01T19:02:22.701Z,101488.84
2022-09-01T19:04:56.306Z,101487.88
2022-09-01T19:07:38.215Z,101490.44
2022-09-01T19:10:18.330Z,101492.34
2022-09-01T19:13:28.020Z,101494.94
2022-09-01T19:16:13.932Z,101494.41
2022-09-01T19:19:18.394Z,101481.06
2022-09-01T19:21:49.258Z,101488.06
2022-09-01T19:24:42.282Z,101492.06
2022-09-01T19:27:20.001Z,101483.66
2022-09-01T19:29:56.032Z,101484.53
2022-09-01T19:32:25.834Z,101491.72
2022-09-01T19:35:02.748Z,101492.38
2022-09-01T19:37:29.243Z,101487.31
2022-09-01T19:39:55.682Z,101493.66
2022-09-01T19:42:45.682Z,101497.25
2022-09-01T19:45:37.091Z,101500.84
2022-09-01T19:48:15.808Z,101505.50
2022-09-01T19:51:00.695Z,101506.56
2022-09-01T19:53:38.373Z,101499.81
2022-09-01T19:56:16.802Z,101507.41
2022-09-01T19:59:01.089Z,101504.44
2022-09-01T20:01:37.700Z,101497.47
2022-09-01T20:04:25.116Z,101505.09
2022-09-01T20:06:56.554Z,101500.69
2022-09-01T20:09:36.843Z,101502.31
2022-09-01T20:12:14.558Z,101502.94
2022-09-01T20:14:49.964Z,101497.44
2022-09-01T20:17:23.568Z,101498.06
2022-09-01T20:20:08.608Z,101493.84
2022-09-01T20:22:41.196Z,101501.88
2022-09-01T20:25:12.847Z,101504.19
2022-09-01T20:27:51.585Z,101509.00
2022-09-01T20:30:24.690Z,101509.00
2022-09-01T20:32:58.268Z,101508.16
2022-09-01T20:35:50.114Z,101510.22
2022-09-01T20:39:03.897Z,101507.53
2022-09-01T20:41:56.731Z,101505.59
2022-09-01T20:44:35.852Z,101496.94
2022-09-01T20:47:05.438Z,101503.03
2022-09-01T20:49:34.846Z,101502.38
2022-09-01T20:52:33.772Z,101496.69
2022-09-01T20:55:30.392Z,101499.06
2022-09-01T20:58:25.896Z,101498.34
2022-09-01T21:01:17.927Z,101494.47
2022-09-01T21:03:50.666Z,101494.47
2022-09-01T21:06:48.507Z,101494.69
2022-09-01T21:09:27.669Z,101494.22
2022-09-01T21:12:32.290Z,101497.03
2022-09-01T21:15:14.036Z,101494.00
2022-09-01T21:17:49.708Z,101490.66
2022-09-01T21:20:30.167Z,101491.44
2022-09-01T21:22:56.649Z,101489.75
2022-09-01T21:25:23.209Z,101492.47
2022-09-01T21:27:55.419Z,101490.38
2022-09-01T21:30:24.107Z,101489.28
2022-09-01T21:32:53.802Z,101479.16
2022-09-01T21:35:21.958Z,101482.63
2022-09-01T21:37:48.788Z,101484.97
2022-09-01T21:40:16.630Z,101486.44
2022-09-01T21:42:51.459Z,101480.81
2022-09-01T21:45:18.961Z,101482.84
2022-09-01T21:47:46.788Z,101477.13
2022-09-01T21:50:15.461Z,101467.38
2022-09-01T21:52:41.987Z,101472.84
2022-09-01T21:55:09.121Z,101465.22
2022-09-01T21:57:36.749Z,101463.59
2022-09-01T22:00:10.094Z,101464.41
2022-09-01T22:02:37.332Z,101466.75
2022-09-01T22:05:05.911Z,101462.09
2022-09-01T22:07:40.248Z,101460.19
2022-09-01T22:10:10.077Z,101454.94
2022-09-01T22:12:37.767Z,101455.13
2022-09-01T22:15:06.629Z,101456.97
2022-09-01T22:17:33.126Z,101455.53
2022-09-01T22:20:00.966Z,101454.59
2022-09-01T22:22:27.356Z,101461.13
2022-09-01T22:24:53.977Z,101456.69
2022-09-01T22:27:20.921Z,101446.03
2022-09-01T22:29:47.312Z,101456.25
2022-09-01T22:32:13.762Z,101455.28
2022-09-01T22:34:43.563Z,101457.31
2022-09-01T22:37:10.538Z,101454.50
2022-09-01T22:39:37.118Z,101455.34
2022-09-01T22:42:03.839Z,101451.34
2022-09-01T22:44:30.298Z,101449.22
2022-09-01T22:46:57.040Z,101450.47
2022-09-01T22:49:23.758Z,101436.19
2022-09-01T22:51:50.343Z,101446.50
2022-09-01T22:54:16.962Z,101443.31
2022-09-01T22:56:43.375Z,101447.88
2022-09-01T22:59:13.112Z,101432.63
2022-09-01T23:01:42.718Z,101436.69
2022-09-01T23:04:11.653Z,101440.81
2022-09-01T23:06:41.562Z,101445.81
2022-09-01T23:09:08.619Z,101444.22
2022-09-01T23:11:35.214Z,101437.19
2022-09-01T23:14:02.274Z,101430.16
2022-09-01T23:16:28.854Z,101431.41
2022-09-01T23:18:56.116Z,101427.69
2022-09-01T23:21:26.678Z,101430.81
2022-09-01T23:23:57.393Z,101421.78
2022-09-01T23:26:26.336Z,101428.53
2022-09-01T23:28:53.337Z,101429.66
2022-09-01T23:31:23.129Z,101424.06
2022-09-01T23:33:49.590Z,101422.56
2022-09-01T23:36:20.981Z,101414.63
2022-09-01T23:38:48.877Z,101412.00
2022-09-01T23:41:23.064Z,101405.16
2022-09-01T23:43:51.688Z,101403.22
2022-09-01T23:46:20.670Z,101405.00
2022-09-01T23:48:47.399Z,101394.72
2022-09-01T23:51:14.088Z,101399.41
2022-09-01T23:53:40.843Z,101404.41
2022-09-01T23:56:17.317Z,101391.84
2022-09-01T23:58:44.206Z,101393.59
